Time;durP1;ratioP1;P1;durP2;ratioP2;P2;SDS_P1;SDS_P2;PMS_P1;PMS_P2;Temp;Humidity;BMP_temperature;BMP_pressure;BME280_temperature;BME280_humidity;BME280_pressure;Samples;Min_cycle;Max_cycle;Signal;HPM_P1;HPM_P2
2024/02/27 00:01:52;;;;;;;;;;;17.60;65.30;;;;;;5038672;28;1340;-71
2024/02/27 00:04:17;;;;;;;;;;;17.60;65.40;;;;;;5071356;28;1567;-72
2024/02/27 00:06:43;;;;;;;;;;;17.60;65.30;;;;;;5039757;28;1316;-72
2024/02/27 00:09:13;;;;;;;;;;;17.60;65.30;;;;;;5039687;28;1902;-73
2024/02/27 00:11:38;;;;;;;;;;;17.60;65.30;;;;;;5073541;28;1642;-72
2024/02/27 00:14:04;;;;;;;;;;;17.60;65.40;;;;;;5039717;28;1261;-72
2024/02/27 00:16:29;;;;;;;;;;;17.60;65.40;;;;;;5039352;28;1616;-72
2024/02/27 00:18:55;;;;;;;;;;;17.60;65.40;;;;;;5038651;28;1375;-73
2024/02/27 00:21:20;;;;;;;;;;;17.60;65.40;;;;;;5037578;28;1469;-72
2024/02/27 00:23:46;;;;;;;;;;;17.60;65.40;;;;;;5036536;28;1564;-72
2024/02/27 00:26:11;;;;;;;;;;;17.60;65.50;;;;;;5038614;28;1295;-72
2024/02/27 00:28:37;;;;;;;;;;;17.60;65.50;;;;;;5038990;28;1961;-71
2024/02/27 00:31:03;;;;;;;;;;;17.60;65.40;;;;;;5038863;28;1366;-72
2024/02/27 00:33:28;;;;;;;;;;;17.60;65.50;;;;;;5035703;28;1299;-71
2024/02/27 00:35:53;;;;;;;;;;;17.60;65.40;;;;;;5037467;28;1559;-72
2024/02/27 00:38:19;;;;;;;;;;;17.60;65.50;;;;;;5035251;28;1324;-71
2024/02/27 00:40:44;;;;;;;;;;;17.60;65.50;;;;;;5045848;28;1324;-71
2024/02/27 00:43:10;;;;;;;;;;;17.60;65.50;;;;;;5038473;28;1433;-71
2024/02/27 00:45:35;;;;;;;;;;;17.60;65.50;;;;;;5040417;28;950;-71
2024/02/27 00:48:01;;;;;;;;;;;17.60;65.50;;;;;;5041564;28;1981;-73
2024/02/27 00:50:28;;;;;;;;;;;17.60;65.50;;;;;;5038599;28;1384;-72
2024/02/27 00:52:53;;;;;;;;;;;17.60;65.50;;;;;;5036483;28;1679;-70
2024/02/27 00:55:19;;;;;;;;;;;17.60;65.50;;;;;;5041245;28;978;-70
2024/02/27 00:57:44;;;;;;;;;;;17.60;65.60;;;;;;5040485;28;1281;-70
2024/02/27 01:00:12;;;;;;;;;;;17.60;65.50;;;;;;5038425;28;1444;-70
2024/02/27 01:02:38;;;;;;;;;;;17.60;65.60;;;;;;5042288;28;1347;-70
2024/02/27 01:05:04;;;;;;;;;;;17.60;65.70;;;;;;5028016;28;1408;-70
2024/02/27 01:07:29;;;;;;;;;;;17.60;65.60;;;;;;5040376;28;1969;-72
2024/02/27 01:09:55;;;;;;;;;;;17.60;65.60;;;;;;5040821;28;1380;-70
2024/02/27 01:12:20;;;;;;;;;;;17.60;65.60;;;;;;5074652;28;1363;-70
2024/02/27 01:14:46;;;;;;;;;;;17.60;65.60;;;;;;5041522;28;1637;-71
2024/02/27 01:17:11;;;;;;;;;;;17.60;65.60;;;;;;5041745;28;1369;-71
2024/02/27 01:19:37;;;;;;;;;;;17.60;65.60;;;;;;5041950;28;1446;-71
2024/02/27 01:22:02;;;;;;;;;;;17.60;65.60;;;;;;5040114;28;1437;-71
2024/02/27 01:24:28;;;;;;;;;;;17.60;65.60;;;;;;5041970;28;1900;-71
2024/02/27 01:26:53;;;;;;;;;;;17.60;65.60;;;;;;5040108;28;1273;-71
2024/02/27 01:29:19;;;;;;;;;;;17.50;65.60;;;;;;5039393;28;1980;-71
2024/02/27 01:31:44;;;;;;;;;;;17.60;65.70;;;;;;5041017;28;1370;-71
2024/02/27 01:34:11;;;;;;;;;;;17.60;65.70;;;;;;5028286;28;1603;-71
2024/02/27 01:36:37;;;;;;;;;;;17.60;65.70;;;;;;5042195;28;1282;-70
2024/02/27 01:39:04;;;;;;;;;;;17.60;65.70;;;;;;5045981;28;1297;-70
2024/02/27 01:41:30;;;;;;;;;;;17.60;65.70;;;;;;5046871;28;1410;-71
2024/02/27 01:43:55;;;;;;;;;;;17.50;65.70;;;;;;5045871;28;1369;-71
2024/02/27 01:46:22;;;;;;;;;;;17.50;65.70;;;;;;5046039;28;1399;-71
2024/02/27 01:48:47;;;;;;;;;;;17.60;65.70;;;;;;5044963;28;1930;-71
2024/02/27 01:51:13;;;;;;;;;;;17.60;65.80;;;;;;5041763;28;1348;-71
2024/02/27 01:53:39;;;;;;;;;;;17.50;65.70;;;;;;5040134;28;1588;-71
2024/02/27 01:56:05;;;;;;;;;;;17.50;65.70;;;;;;5039406;28;1339;-71
2024/02/27 01:58:30;;;;;;;;;;;17.50;65.70;;;;;;5033173;28;1620;-70
2024/02/27 02:00:56;;;;;;;;;;;17.50;65.70;;;;;;5042808;28;1378;-70
2024/02/27 02:03:21;;;;;;;;;;;17.50;65.70;;;;;;5046216;28;1626;-71
2024/02/27 02:05:47;;;;;;;;;;;17.50;65.70;;;;;;5040876;28;1127;-71
2024/02/27 02:08:13;;;;;;;;;;;17.50;65.70;;;;;;5051058;28;1967;-71
2024/02/27 02:10:38;;;;;;;;;;;17.50;65.70;;;;;;5046667;28;1288;-71
2024/02/27 02:13:04;;;;;;;;;;;17.50;65.70;;;;;;5079271;28;1268;-70
2024/02/27 02:15:29;;;;;;;;;;;17.50;65.70;;;;;;5042410;28;1286;-72
2024/02/27 02:17:55;;;;;;;;;;;17.50;65.70;;;;;;5045055;28;1323;-71
2024/02/27 02:20:21;;;;;;;;;;;17.50;65.80;;;;;;5047307;28;1465;-71
2024/02/27 02:22:46;;;;;;;;;;;17.50;65.80;;;;;;5043062;28;1428;-71
2024/02/27 02:25:12;;;;;;;;;;;17.50;65.70;;;;;;5043937;28;1248;-70
2024/02/27 02:27:42;;;;;;;;;;;17.50;65.80;;;;;;5040567;28;1963;-71
2024/02/27 02:30:10;;;;;;;;;;;17.50;65.80;;;;;;5034755;28;1474;-71
2024/02/27 02:32:35;;;;;;;;;;;17.50;65.80;;;;;;5045117;28;1781;-73
2024/02/27 02:35:01;;;;;;;;;;;17.50;65.80;;;;;;5045835;28;1350;-71
2024/02/27 02:37:27;;;;;;;;;;;17.50;65.80;;;;;;5045356;28;1292;-71
2024/02/27 02:39:53;;;;;;;;;;;17.50;65.80;;;;;;5038176;28;1354;-70
2024/02/27 02:42:18;;;;;;;;;;;17.50;65.80;;;;;;5042103;28;1481;-71
2024/02/27 02:44:44;;;;;;;;;;;17.50;65.80;;;;;;5042079;28;1678;-71
2024/02/27 02:47:09;;;;;;;;;;;17.50;65.80;;;;;;5042076;28;1453;-71
2024/02/27 02:49:35;;;;;;;;;;;17.50;65.90;;;;;;5040034;28;1886;-71
2024/02/27 02:52:00;;;;;;;;;;;17.50;65.80;;;;;;5040514;28;1586;-70
2024/02/27 02:54:26;;;;;;;;;;;17.50;65.80;;;;;;5042606;28;1394;-71
2024/02/27 02:56:51;;;;;;;;;;;17.50;65.80;;;;;;5027299;28;1266;-71
2024/02/27 02:59:17;;;;;;;;;;;17.50;65.90;;;;;;5039201;28;1158;-71
2024/02/27 03:01:42;;;;;;;;;;;17.50;65.90;;;;;;5038967;28;1491;-72
2024/02/27 03:04:09;;;;;;;;;;;17.50;65.90;;;;;;5037467;28;1267;-71
2024/02/27 03:06:34;;;;;;;;;;;17.50;65.90;;;;;;5040168;28;1321;-71
2024/02/27 03:09:00;;;;;;;;;;;17.50;65.90;;;;;;5039584;28;1985;-72
2024/02/27 03:11:25;;;;;;;;;;;17.50;65.90;;;;;;5038851;28;1772;-71
2024/02/27 03:13:51;;;;;;;;;;;17.50;65.90;;;;;;5037656;28;1612;-71
2024/02/27 03:16:17;;;;;;;;;;;17.50;65.90;;;;;;5040000;28;1331;-71
2024/02/27 03:18:42;;;;;;;;;;;17.50;65.90;;;;;;5041455;28;1261;-71
2024/02/27 03:21:07;;;;;;;;;;;17.50;65.90;;;;;;5056092;28;1468;-71
2024/02/27 03:23:33;;;;;;;;;;;17.50;65.90;;;;;;5040533;28;1253;-71
2024/02/27 03:25:58;;;;;;;;;;;17.50;65.90;;;;;;5038279;28;1268;-71
2024/02/27 03:28:24;;;;;;;;;;;17.50;65.90;;;;;;5037210;28;1961;-71
2024/02/27 03:30:49;;;;;;;;;;;17.50;65.90;;;;;;5040417;28;1303;-71
2024/02/27 03:33:15;;;;;;;;;;;17.50;65.90;;;;;;5037642;28;1242;-71
2024/02/27 03:35:40;;;;;;;;;;;17.50;65.90;;;;;;5038628;28;970;-71
2024/02/27 03:38:06;;;;;;;;;;;17.50;66.00;;;;;;5038744;28;1492;-72
2024/02/27 03:40:31;;;;;;;;;;;17.50;66.00;;;;;;5041772;28;1381;-70
2024/02/27 03:42:57;;;;;;;;;;;17.50;66.00;;;;;;5038813;28;1272;-70
2024/02/27 03:45:22;;;;;;;;;;;17.50;66.00;;;;;;5039041;28;1471;-70
2024/02/27 03:47:47;;;;;;;;;;;17.50;66.00;;;;;;5042063;28;1969;-71
2024/02/27 03:50:13;;;;;;;;;;;17.50;66.00;;;;;;5043436;28;1329;-71
2024/02/27 03:52:38;;;;;;;;;;;17.50;66.00;;;;;;5046147;28;1399;-70
2024/02/27 03:55:04;;;;;;;;;;;17.40;65.90;;;;;;5045329;28;1347;-70
2024/02/27 03:57:30;;;;;;;;;;;17.50;66.00;;;;;;5041009;28;1543;-70
2024/02/27 03:59:55;;;;;;;;;;;17.50;66.00;;;;;;5039602;28;1474;-72
2024/02/27 04:02:21;;;;;;;;;;;17.50;66.00;;;;;;5042003;28;1375;-72
2024/02/27 04:04:46;;;;;;;;;;;17.50;66.00;;;;;;5042968;28;1360;-71
2024/02/27 04:07:11;;;;;;;;;;;17.50;66.00;;;;;;5041231;28;1331;-72
2024/02/27 04:09:37;;;;;;;;;;;17.50;66.00;;;;;;5042113;28;1918;-70
2024/02/27 04:12:03;;;;;;;;;;;17.40;66.00;;;;;;5038612;28;1523;-70
2024/02/27 04:14:28;;;;;;;;;;;17.50;66.10;;;;;;5039934;28;1719;-70
2024/02/27 04:16:54;;;;;;;;;;;17.40;66.00;;;;;;5042503;28;1360;-70
2024/02/27 04:19:19;;;;;;;;;;;17.40;66.00;;;;;;5037607;28;1257;-70
2024/02/27 04:21:44;;;;;;;;;;;17.40;66.00;;;;;;5056506;28;1374;-71
2024/02/27 04:24:10;;;;;;;;;;;17.50;66.00;;;;;;5042850;28;1128;-71
2024/02/27 04:26:35;;;;;;;;;;;17.40;66.00;;;;;;5040731;28;1461;-71
2024/02/27 04:29:01;;;;;;;;;;;17.40;66.00;;;;;;5040783;28;1898;-71
2024/02/27 04:31:26;;;;;;;;;;;17.40;66.00;;;;;;5040788;28;1290;-71
2024/02/27 04:33:52;;;;;;;;;;;17.40;66.80;;;;;;5038750;28;1654;-70
2024/02/27 04:36:19;;;;;;;;;;;17.40;66.10;;;;;;5038791;28;1231;-70
2024/02/27 04:38:45;;;;;;;;;;;17.40;66.00;;;;;;5038580;28;1484;-70
2024/02/27 04:41:10;;;;;;;;;;;17.40;66.00;;;;;;5039324;28;1303;-70
2024/02/27 04:43:35;;;;;;;;;;;17.40;66.00;;;;;;5037445;28;1623;-70
2024/02/27 04:46:01;;;;;;;;;;;17.40;66.00;;;;;;5036345;28;1344;-70
2024/02/27 04:48:26;;;;;;;;;;;17.40;66.80;;;;;;5038707;28;1902;-70
2024/02/27 04:50:52;;;;;;;;;;;17.40;66.10;;;;;;5038514;28;1513;-71
2024/02/27 04:53:17;;;;;;;;;;;17.40;66.00;;;;;;5040535;28;1332;-70
2024/02/27 04:55:43;;;;;;;;;;;17.40;66.10;;;;;;5036959;28;1317;-70
2024/02/27 04:58:08;;;;;;;;;;;17.40;66.10;;;;;;5037461;28;1405;-70
2024/02/27 05:00:34;;;;;;;;;;;17.40;66.10;;;;;;5039098;28;1316;-70
2024/02/27 05:02:59;;;;;;;;;;;17.40;66.10;;;;;;5041131;28;1326;-70
2024/02/27 05:05:25;;;;;;;;;;;17.40;66.10;;;;;;5037383;28;1555;-70
2024/02/27 05:07:51;;;;;;;;;;;17.40;66.10;;;;;;5040238;28;1946;-70
2024/02/27 05:10:16;;;;;;;;;;;17.40;66.10;;;;;;5037272;28;1409;-70
2024/02/27 05:12:42;;;;;;;;;;;17.50;66.10;;;;;;5043088;28;1470;-70
2024/02/27 05:15:07;;;;;;;;;;;17.50;66.10;;;;;;5039932;28;1321;-71
2024/02/27 05:17:33;;;;;;;;;;;17.60;66.00;;;;;;5040701;28;911;-72
2024/02/27 05:19:58;;;;;;;;;;;17.60;65.90;;;;;;5043420;28;1522;-71
2024/02/27 05:22:24;;;;;;;;;;;17.70;65.70;;;;;;5037746;28;1551;-72
2024/02/27 05:24:49;;;;;;;;;;;17.80;65.60;;;;;;5038741;28;1261;-71
2024/02/27 05:27:16;;;;;;;;;;;18.00;65.50;;;;;;5040296;28;939;-72
2024/02/27 05:29:42;;;;;;;;;;;18.10;65.20;;;;;;5038405;28;1312;-72
2024/02/27 05:32:08;;;;;;;;;;;18.20;64.90;;;;;;5039533;28;1509;-72
2024/02/27 05:34:35;;;;;;;;;;;18.30;64.60;;;;;;5037145;28;1316;-72
2024/02/27 05:37:00;;;;;;;;;;;18.40;64.30;;;;;;5041990;28;1420;-72
2024/02/27 05:39:26;;;;;;;;;;;18.50;63.90;;;;;;5041325;28;1021;-72
2024/02/27 05:41:51;;;;;;;;;;;18.60;63.50;;;;;;5037864;28;1359;-69
2024/02/27 05:44:17;;;;;;;;;;;18.60;63.10;;;;;;5037734;28;1165;-70
2024/02/27 05:46:42;;;;;;;;;;;18.70;62.90;;;;;;5037962;28;1387;-70
2024/02/27 05:49:07;;;;;;;;;;;18.80;62.60;;;;;;5038458;28;2006;-70
2024/02/27 05:51:33;;;;;;;;;;;18.80;62.40;;;;;;5043179;28;1571;-70
2024/02/27 05:53:59;;;;;;;;;;;18.90;62.30;;;;;;5039791;28;1174;-70
2024/02/27 05:56:24;;;;;;;;;;;18.90;62.10;;;;;;5042354;28;1180;-70
2024/02/27 05:58:55;;;;;;;;;;;18.90;61.90;;;;;;5043289;28;1304;-70
2024/02/27 06:01:21;;;;;;;;;;;18.90;61.80;;;;;;5040622;28;1358;-70
2024/02/27 06:03:46;;;;;;;;;;;18.90;61.70;;;;;;5039601;28;1145;-70
2024/02/27 06:06:12;;;;;;;;;;;19.00;61.70;;;;;;5042386;28;914;-70
2024/02/27 06:08:37;;;;;;;;;;;19.00;61.70;;;;;;5045538;28;1914;-70
2024/02/27 06:11:03;;;;;;;;;;;19.00;61.60;;;;;;5039875;28;1276;-70
2024/02/27 06:13:29;;;;;;;;;;;19.00;61.60;;;;;;5041951;28;915;-70
2024/02/27 06:15:55;;;;;;;;;;;19.00;61.60;;;;;;5040781;28;1333;-71
2024/02/27 06:18:20;;;;;;;;;;;19.00;61.60;;;;;;5049942;28;1315;-70
2024/02/27 06:23:31;;;;;;;;;;;19.00;61.70;;;;;;5043692;28;1375;-70
2024/02/27 06:25:56;;;;;;;;;;;19.00;61.70;;;;;;5041838;28;1629;-70
2024/02/27 06:28:22;;;;;;;;;;;19.00;61.70;;;;;;5046764;28;1955;-71
2024/02/27 06:30:48;;;;;;;;;;;18.90;61.60;;;;;;5041588;28;1558;-71
2024/02/27 06:33:13;;;;;;;;;;;18.90;61.70;;;;;;5039695;28;1326;-71
2024/02/27 06:35:39;;;;;;;;;;;19.00;61.80;;;;;;5041141;28;1255;-71
2024/02/27 06:38:04;;;;;;;;;;;18.90;61.70;;;;;;5049524;28;946;-71
2024/02/27 06:40:30;;;;;;;;;;;18.90;61.80;;;;;;5044536;28;1350;-71
2024/02/27 06:42:55;;;;;;;;;;;18.90;61.80;;;;;;5040484;28;1981;-69
2024/02/27 06:45:21;;;;;;;;;;;18.90;61.80;;;;;;5041034;28;1933;-69
2024/02/27 06:47:47;;;;;;;;;;;18.90;61.90;;;;;;5037274;28;1895;-70
2024/02/27 06:50:12;;;;;;;;;;;18.90;62.00;;;;;;5041094;28;1612;-70
2024/02/27 06:52:38;;;;;;;;;;;18.90;62.00;;;;;;5039392;28;1277;-71
2024/02/27 06:55:04;;;;;;;;;;;18.90;62.00;;;;;;5038267;28;1279;-71
2024/02/27 06:57:29;;;;;;;;;;;18.90;62.10;;;;;;5039194;28;1263;-71
2024/02/27 06:59:55;;;;;;;;;;;18.80;62.10;;;;;;5041901;28;1182;-70
2024/02/27 07:02:20;;;;;;;;;;;18.80;62.10;;;;;;5037790;28;1698;-71
2024/02/27 07:04:46;;;;;;;;;;;18.80;62.10;;;;;;5047152;28;1353;-72
2024/02/27 07:07:12;;;;;;;;;;;18.80;62.20;;;;;;5057267;28;1214;-70
2024/02/27 07:09:37;;;;;;;;;;;18.80;62.20;;;;;;5042323;28;1918;-71
2024/02/27 07:12:03;;;;;;;;;;;18.80;62.30;;;;;;5037298;28;1260;-71
2024/02/27 07:14:29;;;;;;;;;;;18.80;62.30;;;;;;5041830;28;1627;-70
2024/02/27 07:16:55;;;;;;;;;;;18.80;62.40;;;;;;5042546;28;1533;-71
2024/02/27 07:19:21;;;;;;;;;;;18.80;62.40;;;;;;5039780;28;1361;-71
2024/02/27 07:21:47;;;;;;;;;;;18.70;62.40;;;;;;5045483;28;1544;-73
2024/02/27 07:24:12;;;;;;;;;;;18.70;62.50;;;;;;5038159;28;1629;-72
2024/02/27 07:26:38;;;;;;;;;;;18.70;62.50;;;;;;5039418;28;1336;-72
2024/02/27 07:29:03;;;;;;;;;;;18.70;62.50;;;;;;5039400;28;1910;-72
2024/02/27 07:31:29;;;;;;;;;;;18.70;62.60;;;;;;5041161;28;1455;-73
2024/02/27 07:33:55;;;;;;;;;;;18.70;62.60;;;;;;5039773;28;1701;-73
2024/02/27 07:36:21;;;;;;;;;;;18.70;62.70;;;;;;5040090;28;1441;-73
2024/02/27 07:38:47;;;;;;;;;;;18.70;62.70;;;;;;5032340;28;1435;-72
2024/02/27 07:41:13;;;;;;;;;;;18.60;62.70;;;;;;5022769;28;1294;-71
2024/02/27 07:43:38;;;;;;;;;;;18.60;62.70;;;;;;5039317;28;1562;-71
2024/02/27 07:46:04;;;;;;;;;;;18.70;62.80;;;;;;5038398;28;1362;-71
2024/02/27 07:48:30;;;;;;;;;;;18.60;62.70;;;;;;5039874;28;1902;-72
2024/02/27 07:50:55;;;;;;;;;;;18.60;62.80;;;;;;5040042;28;1285;-72
2024/02/27 07:53:21;;;;;;;;;;;18.60;62.80;;;;;;5039718;28;1636;-73
2024/02/27 07:55:47;;;;;;;;;;;18.60;62.90;;;;;;5041853;28;1295;-73
2024/02/27 07:58:13;;;;;;;;;;;18.60;62.90;;;;;;5037540;28;1568;-72
2024/02/27 08:00:38;;;;;;;;;;;18.60;62.90;;;;;;5035604;28;1400;-71
2024/02/27 08:03:13;;;;;;;;;;;18.60;63.00;;;;;;5037268;28;1564;-70
2024/02/27 08:05:38;;;;;;;;;;;18.60;63.00;;;;;;5036748;28;1284;-70
2024/02/27 08:08:05;;;;;;;;;;;18.50;63.00;;;;;;5036836;28;1914;-70
2024/02/27 08:10:30;;;;;;;;;;;18.50;63.00;;;;;;5038076;28;1668;-69
2024/02/27 08:12:56;;;;;;;;;;;18.50;63.10;;;;;;5039809;28;1323;-69
2024/02/27 08:15:21;;;;;;;;;;;18.50;63.10;;;;;;5054879;28;1550;-69
2024/02/27 08:17:47;;;;;;;;;;;18.50;63.10;;;;;;5040211;28;1337;-69
2024/02/27 08:20:12;;;;;;;;;;;18.50;63.20;;;;;;5039892;28;1464;-69
2024/02/27 08:22:38;;;;;;;;;;;18.50;63.20;;;;;;5039568;28;1324;-69
2024/02/27 08:25:03;;;;;;;;;;;18.50;63.20;;;;;;5038035;28;1569;-69
2024/02/27 08:27:29;;;;;;;;;;;18.50;63.30;;;;;;5047024;28;1890;-71
2024/02/27 08:29:55;;;;;;;;;;;18.50;63.30;;;;;;5039498;28;1390;-72
2024/02/27 08:32:20;;;;;;;;;;;18.40;63.30;;;;;;5039925;28;1285;-72
2024/02/27 08:34:46;;;;;;;;;;;18.40;63.30;;;;;;5038497;28;1317;-72
2024/02/27 08:37:12;;;;;;;;;;;18.40;63.40;;;;;;5036945;28;1399;-72
2024/02/27 08:39:37;;;;;;;;;;;18.40;63.40;;;;;;5039205;28;1060;-71
2024/02/27 08:42:03;;;;;;;;;;;18.40;63.40;;;;;;5038952;28;1308;-72
2024/02/27 08:44:29;;;;;;;;;;;18.40;63.50;;;;;;5037246;28;1130;-71
2024/02/27 08:46:54;;;;;;;;;;;18.40;63.50;;;;;;5034572;28;1506;-72
2024/02/27 08:49:20;;;;;;;;;;;18.40;63.50;;;;;;5039084;28;1902;-71
2024/02/27 08:51:45;;;;;;;;;;;18.40;63.50;;;;;;5038896;28;1276;-70
2024/02/27 08:54:11;;;;;;;;;;;18.40;63.50;;;;;;5036925;28;1310;-70
2024/02/27 08:56:39;;;;;;;;;;;18.40;63.50;;;;;;5036730;28;1527;-70
2024/02/27 08:59:05;;;;;;;;;;;18.40;63.50;;;;;;5036493;28;1105;-70
2024/02/27 09:01:31;;;;;;;;;;;18.40;63.50;;;;;;5038563;28;1371;-70
2024/02/27 09:03:56;;;;;;;;;;;18.40;63.40;;;;;;5036677;28;1351;-72
2024/02/27 09:06:22;;;;;;;;;;;18.40;63.40;;;;;;5046685;28;1614;-70
2024/02/27 09:08:47;;;;;;;;;;;18.40;63.40;;;;;;5039977;28;1898;-70
2024/02/27 09:11:12;;;;;;;;;;;18.40;63.40;;;;;;5037193;28;1303;-70
2024/02/27 09:13:38;;;;;;;;;;;18.40;63.30;;;;;;5038319;28;1230;-70
2024/02/27 09:16:05;;;;;;;;;;;18.50;63.40;;;;;;5041141;28;1335;-70
2024/02/27 09:18:30;;;;;;;;;;;18.50;63.40;;;;;;5040255;28;1621;-71
2024/02/27 09:20:56;;;;;;;;;;;18.40;63.30;;;;;;5041540;28;1276;-71
2024/02/27 09:23:21;;;;;;;;;;;18.50;63.30;;;;;;5040340;28;1397;-71
2024/02/27 09:25:47;;;;;;;;;;;18.50;63.30;;;;;;5045588;28;809;-71
2024/02/27 09:28:13;;;;;;;;;;;18.50;63.30;;;;;;5028495;28;1959;-71
2024/02/27 09:30:39;;;;;;;;;;;18.50;63.30;;;;;;5063053;28;1382;-71
2024/02/27 09:33:04;;;;;;;;;;;18.50;63.30;;;;;;5043607;28;1320;-71
2024/02/27 09:35:30;;;;;;;;;;;18.40;63.20;;;;;;5044213;28;1374;-71
2024/02/27 09:37:55;;;;;;;;;;;18.40;63.20;;;;;;5044803;28;1247;-71
2024/02/27 09:40:21;;;;;;;;;;;18.40;63.20;;;;;;5042866;28;1451;-71
2024/02/27 09:42:51;;;;;;;;;;;18.40;63.30;;;;;;5040181;28;1439;-71
2024/02/27 09:45:17;;;;;;;;;;;18.40;63.30;;;;;;5047356;28;1473;-71
2024/02/27 09:47:45;;;;;;;;;;;18.40;63.30;;;;;;5049140;28;1906;-71
2024/02/27 09:50:12;;;;;;;;;;;18.40;63.30;;;;;;5040510;28;1489;-70
2024/02/27 09:52:38;;;;;;;;;;;18.40;63.40;;;;;;5040135;28;1484;-70
2024/02/27 09:55:04;;;;;;;;;;;18.40;63.40;;;;;;5039922;28;1285;-71
2024/02/27 09:57:29;;;;;;;;;;;18.40;63.40;;;;;;5040947;28;1575;-70
2024/02/27 09:59:55;;;;;;;;;;;18.40;63.40;;;;;;5043398;28;1574;-70
2024/02/27 10:02:20;;;;;;;;;;;18.40;63.50;;;;;;5041910;28;1301;-70
2024/02/27 10:04:46;;;;;;;;;;;18.40;63.40;;;;;;5044109;28;1359;-70
2024/02/27 10:07:11;;;;;;;;;;;18.40;63.40;;;;;;5050482;28;1597;-70
2024/02/27 10:09:46;;;;;;;;;;;18.40;63.40;;;;;;5059851;28;1967;-71
2024/02/27 10:12:12;;;;;;;;;;;18.40;63.40;;;;;;5048430;28;1528;-72
2024/02/27 10:14:38;;;;;;;;;;;18.40;63.40;;;;;;5032443;28;1358;-72
2024/02/27 10:17:07;;;;;;;;;;;18.40;64.10;;;;;;5042906;28;1621;-72
2024/02/27 10:19:32;;;;;;;;;;;18.40;63.40;;;;;;5026158;28;1720;-73
2024/02/27 10:21:58;;;;;;;;;;;18.40;63.40;;;;;;5041762;28;1593;-73
2024/02/27 10:24:25;;;;;;;;;;;18.50;63.50;;;;;;5058743;28;1269;-73
2024/02/27 10:26:54;;;;;;;;;;;18.40;63.30;;;;;;5058552;28;1295;-72
2024/02/27 10:29:21;;;;;;;;;;;18.40;63.30;;;;;;5048126;28;1902;-73
2024/02/27 10:31:47;;;;;;;;;;;18.50;63.40;;;;;;5057105;28;1554;-72
2024/02/27 10:34:13;;;;;;;;;;;18.40;63.30;;;;;;5041573;28;1599;-73
2024/02/27 10:36:38;;;;;;;;;;;18.40;63.40;;;;;;5049625;28;1435;-73
2024/02/27 10:39:09;;;;;;;;;;;18.40;63.40;;;;;;5042292;28;1050;-74
2024/02/27 10:41:38;;;;;;;;;;;18.40;63.40;;;;;;5026747;28;1730;-73
2024/02/27 10:44:07;;;;;;;;;;;18.40;63.40;;;;;;5039811;28;1379;-73
2024/02/27 10:46:39;;;;;;;;;;;18.40;63.40;;;;;;5044582;28;1304;-73
2024/02/27 10:49:04;;;;;;;;;;;18.40;63.40;;;;;;5042022;28;1867;-73
2024/02/27 10:51:30;;;;;;;;;;;18.40;63.50;;;;;;5026488;28;1549;-74
2024/02/27 10:53:56;;;;;;;;;;;18.40;63.50;;;;;;5037753;28;1592;-74
2024/02/27 10:56:22;;;;;;;;;;;18.40;63.60;;;;;;5025390;28;1348;-72
2024/02/27 10:58:47;;;;;;;;;;;18.40;63.60;;;;;;5072545;28;1280;-72
2024/02/27 11:01:13;;;;;;;;;;;18.30;63.60;;;;;;5039484;28;1288;-73
2024/02/27 11:03:40;;;;;;;;;;;18.40;63.60;;;;;;5037594;28;1381;-74
2024/02/27 11:06:05;;;;;;;;;;;18.40;63.60;;;;;;5039326;28;1600;-75
2024/02/27 11:08:31;;;;;;;;;;;18.40;63.60;;;;;;5048907;28;1957;-74
2024/02/27 11:10:57;;;;;;;;;;;18.30;63.60;;;;;;5039582;28;1339;-75
2024/02/27 11:13:23;;;;;;;;;;;18.30;63.70;;;;;;5046796;28;1347;-75
2024/02/27 11:15:48;;;;;;;;;;;18.30;63.70;;;;;;5072528;28;1477;-73
2024/02/27 11:18:15;;;;;;;;;;;18.30;63.70;;;;;;5039840;28;1268;-73
2024/02/27 11:20:40;;;;;;;;;;;18.30;63.70;;;;;;5044262;28;1407;-73
2024/02/27 11:23:06;;;;;;;;;;;18.30;63.70;;;;;;5042810;28;1127;-73
2024/02/27 11:25:31;;;;;;;;;;;18.30;63.70;;;;;;5037821;28;1207;-72
2024/02/27 11:27:57;;;;;;;;;;;18.30;63.70;;;;;;5041230;28;1961;-73
2024/02/27 11:30:22;;;;;;;;;;;18.30;63.70;;;;;;5022094;28;1303;-73
2024/02/27 11:32:48;;;;;;;;;;;18.30;63.60;;;;;;5074336;28;947;-73
2024/02/27 11:35:14;;;;;;;;;;;18.40;63.60;;;;;;5040358;28;1246;-73
2024/02/27 11:37:40;;;;;;;;;;;18.40;63.60;;;;;;5040049;28;1701;-73
2024/02/27 11:40:06;;;;;;;;;;;18.40;64.30;;;;;;5037292;28;1346;-74
2024/02/27 11:42:32;;;;;;;;;;;18.40;63.50;;;;;;5047228;28;1373;-73
2024/02/27 11:45:01;;;;;;;;;;;18.40;63.50;;;;;;5037497;28;1419;-74
2024/02/27 11:47:39;;;;;;;;;;;18.40;63.40;;;;;;5039903;28;1475;-74
2024/02/27 11:50:06;;;;;;;;;;;18.40;63.40;;;;;;5040370;28;1161;-74
2024/02/27 11:52:34;;;;;;;;;;;18.40;63.30;;;;;;5038691;28;1592;-74
2024/02/27 11:55:07;;;;;;;;;;;18.40;63.30;;;;;;5039357;28;1469;-74
2024/02/27 11:57:36;;;;;;;;;;;18.40;63.20;;;;;;5040946;28;1560;-75
2024/02/27 12:00:07;;;;;;;;;;;18.40;63.20;;;;;;5039340;28;1695;-73
2024/02/27 12:02:36;;;;;;;;;;;18.40;63.20;;;;;;5038446;28;1431;-74
2024/02/27 12:05:03;;;;;;;;;;;18.40;63.20;;;;;;5030377;28;1608;-74
2024/02/27 12:07:29;;;;;;;;;;;18.50;63.20;;;;;;5041360;28;1199;-73
2024/02/27 12:10:04;;;;;;;;;;;18.50;63.20;;;;;;5035166;28;1906;-74
2024/02/27 12:12:29;;;;;;;;;;;18.50;63.20;;;;;;5040667;28;1440;-74
2024/02/27 12:14:55;;;;;;;;;;;18.40;63.10;;;;;;5039726;28;1573;-73
2024/02/27 12:17:21;;;;;;;;;;;18.50;63.20;;;;;;5035265;28;1680;-73
2024/02/27 12:19:46;;;;;;;;;;;18.50;63.10;;;;;;5040111;28;1375;-74
2024/02/27 12:22:12;;;;;;;;;;;18.50;63.10;;;;;;5038330;28;1396;-73
2024/02/27 12:24:37;;;;;;;;;;;18.50;63.10;;;;;;5039329;28;1843;-74
2024/02/27 12:27:03;;;;;;;;;;;18.50;63.10;;;;;;5038858;28;1560;-74
2024/02/27 12:29:28;;;;;;;;;;;18.50;63.10;;;;;;5043351;28;1954;-74
2024/02/27 12:31:54;;;;;;;;;;;18.50;63.10;;;;;;5044470;28;1592;-74
2024/02/27 12:34:19;;;;;;;;;;;18.50;63.10;;;;;;5036539;28;1496;-74
2024/02/27 12:36:45;;;;;;;;;;;18.50;63.10;;;;;;5038767;28;1079;-75
2024/02/27 12:39:11;;;;;;;;;;;18.50;63.20;;;;;;5038279;28;1463;-75
2024/02/27 12:41:36;;;;;;;;;;;18.50;63.10;;;;;;5039114;28;1381;-75
2024/02/27 12:44:01;;;;;;;;;;;18.50;63.10;;;;;;5036448;28;1053;-72
2024/02/27 12:46:27;;;;;;;;;;;18.50;63.10;;;;;;5036292;28;1399;-72
2024/02/27 12:48:53;;;;;;;;;;;18.40;63.10;;;;;;5039193;28;1882;-71
2024/02/27 12:51:18;;;;;;;;;;;18.50;63.10;;;;;;5036017;28;1458;-72
2024/02/27 12:53:44;;;;;;;;;;;18.50;63.10;;;;;;5036413;28;1592;-72
2024/02/27 12:56:09;;;;;;;;;;;18.50;63.20;;;;;;5035677;28;1480;-72
2024/02/27 12:58:35;;;;;;;;;;;18.40;63.10;;;;;;5046450;28;1337;-72
2024/02/27 13:01:00;;;;;;;;;;;18.50;63.20;;;;;;5039549;28;1244;-72
2024/02/27 13:03:26;;;;;;;;;;;18.40;63.10;;;;;;5045135;28;1287;-73
2024/02/27 13:05:51;;;;;;;;;;;18.40;63.20;;;;;;5044777;28;1654;-72
2024/02/27 13:08:17;;;;;;;;;;;18.40;63.20;;;;;;5041314;28;1979;-72
2024/02/27 13:10:42;;;;;;;;;;;18.40;63.20;;;;;;5076880;28;1617;-72
2024/02/27 13:13:18;;;;;;;;;;;18.40;63.30;;;;;;5042420;28;1336;-72
2024/02/27 13:15:44;;;;;;;;;;;18.40;63.40;;;;;;5043080;28;1785;-72
2024/02/27 13:18:09;;;;;;;;;;;18.40;63.30;;;;;;5045311;28;1664;-72
2024/02/27 13:20:35;;;;;;;;;;;18.40;63.40;;;;;;5074440;28;1667;-73
2024/02/27 13:23:01;;;;;;;;;;;18.40;63.40;;;;;;5042421;28;1908;-73
2024/02/27 13:25:27;;;;;;;;;;;18.30;63.40;;;;;;5042674;28;1439;-73
2024/02/27 13:27:52;;;;;;;;;;;18.40;63.50;;;;;;5042819;28;1959;-72
2024/02/27 13:30:17;;;;;;;;;;;18.30;63.40;;;;;;5049303;28;1546;-71
2024/02/27 13:32:43;;;;;;;;;;;18.40;63.50;;;;;;5042573;28;1374;-72
2024/02/27 13:35:08;;;;;;;;;;;18.40;63.60;;;;;;5039753;28;1483;-72
2024/02/27 13:37:34;;;;;;;;;;;18.40;63.60;;;;;;5040252;28;1585;-72
2024/02/27 13:40:00;;;;;;;;;;;18.30;63.60;;;;;;5038732;28;1527;-72
2024/02/27 13:42:25;;;;;;;;;;;18.30;63.60;;;;;;5042077;28;1357;-72
2024/02/27 13:44:51;;;;;;;;;;;18.30;63.60;;;;;;5039522;28;866;-72
2024/02/27 13:47:16;;;;;;;;;;;18.30;63.60;;;;;;5042950;28;1333;-72
2024/02/27 13:49:42;;;;;;;;;;;18.30;63.60;;;;;;5041087;28;1906;-72
2024/02/27 13:52:07;;;;;;;;;;;18.30;63.70;;;;;;5042748;28;1328;-72
2024/02/27 13:54:33;;;;;;;;;;;18.30;63.70;;;;;;5043765;28;1360;-72
2024/02/27 13:56:58;;;;;;;;;;;18.30;63.70;;;;;;5040069;28;1002;-72
2024/02/27 13:59:24;;;;;;;;;;;18.30;63.80;;;;;;5040446;28;1451;-72
2024/02/27 14:01:49;;;;;;;;;;;18.20;63.80;;;;;;5041058;28;1531;-72
2024/02/27 14:04:15;;;;;;;;;;;18.20;63.80;;;;;;5040510;28;1052;-72
2024/02/27 14:06:41;;;;;;;;;;;18.20;63.80;;;;;;5040460;28;1144;-73
2024/02/27 14:09:06;;;;;;;;;;;18.20;63.80;;;;;;5040090;28;1969;-73
2024/02/27 14:11:32;;;;;;;;;;;18.20;63.80;;;;;;5041982;28;1317;-73
2024/02/27 14:13:58;;;;;;;;;;;18.20;63.90;;;;;;5040796;28;1268;-73
2024/02/27 14:16:23;;;;;;;;;;;18.20;63.90;;;;;;5042859;28;1594;-73
2024/02/27 14:18:49;;;;;;;;;;;18.20;63.90;;;;;;5074768;28;1107;-73
2024/02/27 14:21:15;;;;;;;;;;;18.20;63.90;;;;;;5038157;28;1391;-72
2024/02/27 14:23:41;;;;;;;;;;;18.20;63.90;;;;;;5040737;28;1623;-72
2024/02/27 14:26:06;;;;;;;;;;;18.20;63.90;;;;;;5039731;28;1461;-72